Lovelace, Texas
Current Conditions -  °F | °C
As of 4:35 AM on Monday 22 Dec 2014 (Local Time) from KINJ Reporting Station
Broken Clouds Broken Clouds  
Wind Chill: 55°   Ceiling: 1800
Heat Index: 55°   Visibility: 10mi
Dew Point: 50°   Wind: 17mph
Humidity: 81%   Direction: 190°S
Pressure: 29.64"   Gusts: 24mph
Location:  32.0499°N, 97.1039°W
Report Text: KINJ 221035Z AUTO 19015G21KT 10SM BKN018 13/10 A2964 RMK AO2 T01300098
Loading
Personal Weather Stations






























Interactive Weather Map New forecast layout! Learn more

10-Day Weather Forecast

Advertisements
Track Severe Weather on mobile